createdAt,value
2018-02-09T00:00:00.801Z,-6.22
2018-02-09T00:01:00.898Z,-6.12
2018-02-09T00:02:00.465Z,-6.04
2018-02-09T00:03:00.960Z,-6.16
2018-02-09T00:04:01.106Z,-6.16
2018-02-09T00:05:01.210Z,-6.16
2018-02-09T00:06:00.970Z,-6.08
2018-02-09T00:07:01.490Z,-6.18
2018-02-09T00:08:01.908Z,-6.22
2018-02-09T00:09:01.992Z,-6.16
2018-02-09T00:10:02.044Z,-6.05
2018-02-09T00:11:02.026Z,-6.16
2018-02-09T00:12:02.100Z,-6.2
2018-02-09T00:13:01.830Z,-6.16
2018-02-09T00:14:01.946Z,-6.26
2018-02-09T00:15:01.837Z,-6.25
2018-02-09T00:16:01.959Z,-6.28
2018-02-09T00:17:02.688Z,-6.33
2018-02-09T00:18:02.450Z,-6.26
2018-02-09T00:19:02.503Z,-6.26
2018-02-09T00:20:02.517Z,-6.26
2018-02-09T00:21:02.488Z,-6.37
2018-02-09T00:22:02.489Z,-6.3
2018-02-09T00:23:02.731Z,-6.33
2018-02-09T00:24:02.406Z,-6.31
2018-02-09T00:25:02.829Z,-6.36
2018-02-09T00:26:02.853Z,-6.37
2018-02-09T00:27:03.060Z,-6.34
2018-02-09T00:28:03.021Z,-6.34
2018-02-09T00:29:03.031Z,-6.36
2018-02-09T00:30:03.273Z,-6.4
2018-02-09T00:31:03.673Z,-6.38
2018-02-09T00:32:03.232Z,-6.38
2018-02-09T00:33:03.837Z,-6.48
2018-02-09T00:34:03.492Z,-6.38
2018-02-09T00:35:03.655Z,-6.31
2018-02-09T00:36:03.750Z,-6.37
2018-02-09T00:37:04.210Z,-6.43
2018-02-09T00:38:03.979Z,-6.48
2018-02-09T00:39:03.814Z,-6.48
2018-02-09T00:40:04.700Z,-6.43
2018-02-09T00:41:04.370Z,-6.44
2018-02-09T00:42:04.435Z,-6.48
2018-02-09T00:43:04.230Z,-6.51
2018-02-09T00:44:04.805Z,-6.48
2018-02-09T00:45:04.909Z,-6.49
2018-02-09T00:46:04.175Z,-6.48
2018-02-09T00:47:04.472Z,-6.48
2018-02-09T00:48:04.218Z,-6.49
2018-02-09T00:49:04.485Z,-6.44
2018-02-09T00:50:04.583Z,-6.52
2018-02-09T00:51:05.357Z,-6.49
2018-02-09T00:52:05.062Z,-6.48
2018-02-09T00:53:04.737Z,-6.48
2018-02-09T00:54:05.457Z,-6.58
2018-02-09T00:55:04.989Z,-6.48
2018-02-09T00:56:05.522Z,-6.52
2018-02-09T00:57:05.475Z,-6.55
2018-02-09T00:58:05.320Z,-6.52
2018-02-09T00:59:05.338Z,-6.48
2018-02-09T01:00:04.970Z,-6.6
2018-02-09T01:01:05.674Z,-6.55
2018-02-09T01:02:05.540Z,-6.63
2018-02-09T01:03:05.846Z,-6.59
2018-02-09T01:04:06.020Z,-6.6
2018-02-09T01:05:06.068Z,-6.68
2018-02-09T01:06:06.276Z,-6.63
2018-02-09T01:07:06.336Z,-6.59
2018-02-09T01:08:06.477Z,-6.59
2018-02-09T01:09:07.017Z,-6.59
2018-02-09T01:10:06.683Z,-6.59
2018-02-09T01:11:06.945Z,-6.51
2018-02-09T01:12:07.417Z,-6.51
2018-02-09T01:13:06.813Z,-6.52
2018-02-09T01:14:07.132Z,-6.59
2018-02-09T01:15:07.768Z,-6.44
2018-02-09T01:16:07.813Z,-6.51
2018-02-09T01:17:07.819Z,-6.44
2018-02-09T01:18:07.709Z,-6.41
2018-02-09T01:19:08.099Z,-6.44
2018-02-09T01:20:07.580Z,-6.34
2018-02-09T01:21:07.724Z,-6.34
2018-02-09T01:22:07.918Z,-6.36
2018-02-09T01:23:07.790Z,-6.41
2018-02-09T01:24:07.944Z,-6.43
2018-02-09T01:25:07.790Z,-6.28
2018-02-09T01:26:08.512Z,-6.4
2018-02-09T01:27:08.681Z,-6.37
2018-02-09T01:28:08.676Z,-6.38
2018-02-09T01:29:08.628Z,-6.38
2018-02-09T01:30:09.139Z,-6.4
2018-02-09T01:31:09.292Z,-6.41
2018-02-09T01:32:09.551Z,-6.44
2018-02-09T01:33:09.678Z,-6.31
2018-02-09T01:34:10.127Z,-6.51
2018-02-09T01:35:10.256Z,-6.36
2018-02-09T01:36:10.577Z,-6.48
2018-02-09T01:37:10.622Z,-6.46
2018-02-09T01:38:10.523Z,-6.43
2018-02-09T01:39:10.772Z,-6.49
2018-02-09T01:40:10.919Z,-6.58
2018-02-09T01:41:11.459Z,-6.6
2018-02-09T01:42:11.111Z,-6.63
2018-02-09T01:43:11.344Z,-6.65
2018-02-09T01:44:11.722Z,-6.71
2018-02-09T01:45:12.174Z,-6.68
2018-02-09T01:46:11.964Z,-6.7
2018-02-09T01:47:11.871Z,-6.7
2018-02-09T01:48:11.988Z,-6.78
2018-02-09T01:49:12.643Z,-6.81
2018-02-09T01:50:12.875Z,-6.89
2018-02-09T01:51:12.342Z,-6.83
2018-02-09T01:52:12.881Z,-6.74
2018-02-09T01:53:13.278Z,-6.76
2018-02-09T01:54:13.281Z,-6.81
2018-02-09T01:55:13.680Z,-6.8
2018-02-09T01:56:13.497Z,-6.87
2018-02-09T01:57:14.217Z,-6.8
2018-02-09T01:58:13.672Z,-6.8
2018-02-09T01:59:13.946Z,-6.87
2018-02-09T02:00:14.315Z,-6.89
2018-02-09T02:01:14.695Z,-6.92
2018-02-09T02:02:15.356Z,-6.95
2018-02-09T02:03:15.404Z,-6.91
2018-02-09T02:04:15.540Z,-6.81
2018-02-09T02:05:15.650Z,-6.8
2018-02-09T02:06:15.649Z,-6.88
2018-02-09T02:07:15.698Z,-6.77
2018-02-09T02:08:15.442Z,-6.73
2018-02-09T02:09:15.837Z,-6.74
2018-02-09T02:10:16.116Z,-6.78
2018-02-09T02:11:16.264Z,-6.83
2018-02-09T02:12:15.999Z,-6.83
2018-02-09T02:13:16.424Z,-6.88
2018-02-09T02:14:16.570Z,-6.88
2018-02-09T02:15:16.833Z,-6.84
2018-02-09T02:16:17.409Z,-6.95
2018-02-09T02:17:17.837Z,-6.98
2018-02-09T02:18:18.042Z,-6.92
2018-02-09T02:19:18.220Z,-6.95
2018-02-09T02:20:17.794Z,-7.02
2018-02-09T02:21:17.913Z,-6.91
2018-02-09T02:22:18.466Z,-6.92
2018-02-09T02:23:18.143Z,-6.92
2018-02-09T02:24:18.294Z,-6.99
2018-02-09T02:25:18.675Z,-7.05
2018-02-09T02:26:18.701Z,-7.02
2018-02-09T02:27:19.327Z,-7.06
2018-02-09T02:28:19.455Z,-7.05
2018-02-09T02:29:19.627Z,-7.06
2018-02-09T02:30:19.544Z,-7.02
2018-02-09T02:31:19.385Z,-6.97
2018-02-09T02:32:19.510Z,-6.97
2018-02-09T02:33:20.218Z,-6.91
2018-02-09T02:34:20.378Z,-6.94
2018-02-09T02:35:20.450Z,-6.94
2018-02-09T02:36:20.375Z,-7.01
2018-02-09T02:37:20.519Z,-6.97
2018-02-09T02:38:20.557Z,-6.84
2018-02-09T02:39:20.648Z,-7.01
2018-02-09T02:40:20.832Z,-6.94
2018-02-09T02:41:20.849Z,-6.97
2018-02-09T02:42:21.136Z,-6.98
2018-02-09T02:43:21.176Z,-7.05
2018-02-09T02:44:21.276Z,-7.12
2018-02-09T02:45:21.684Z,-7.1
2018-02-09T02:46:22.305Z,-7.16
2018-02-09T02:47:22.545Z,-7.16
2018-02-09T02:48:23.050Z,-7.09
2018-02-09T02:49:22.101Z,-7.09
2018-02-09T02:50:22.043Z,-7.09
2018-02-09T02:51:22.101Z,-7.12
2018-02-09T02:52:22.251Z,-7.09
2018-02-09T02:53:22.288Z,-7.1
2018-02-09T02:54:22.294Z,-7.16
2018-02-09T02:55:22.569Z,-7.19
2018-02-09T02:56:22.328Z,-7.19
2018-02-09T02:57:22.487Z,-7.24
2018-02-09T02:58:23.040Z,-7.15
2018-02-09T02:59:23.053Z,-7.06
2018-02-09T03:00:23.259Z,-7.09
2018-02-09T03:01:23.603Z,-6.99
2018-02-09T03:02:23.277Z,-6.94
2018-02-09T03:03:23.437Z,-6.94
2018-02-09T03:04:23.421Z,-7.01
2018-02-09T03:05:23.023Z,-6.97
2018-02-09T03:06:23.341Z,-7.05
2018-02-09T03:07:23.897Z,-6.91
2018-02-09T03:08:23.754Z,-7.02
2018-02-09T03:09:24.068Z,-7.01
2018-02-09T03:10:24.066Z,-7.01
2018-02-09T03:11:24.194Z,-6.99
2018-02-09T03:12:24.469Z,-7.09
2018-02-09T03:13:24.228Z,-7.15
2018-02-09T03:14:24.528Z,-7.12
2018-02-09T03:15:24.751Z,-7.17
2018-02-09T03:16:25.001Z,-7.24
2018-02-09T03:17:24.514Z,-7.22
2018-02-09T03:18:24.823Z,-7.3
2018-02-09T03:19:24.781Z,-7.28
2018-02-09T03:20:24.820Z,-7.27
2018-02-09T03:21:24.849Z,-7.17
2018-02-09T03:22:24.588Z,-7.24
2018-02-09T03:23:25.133Z,-7.3
2018-02-09T03:24:25.491Z,-7.24
2018-02-09T03:25:24.942Z,-7.26
2018-02-09T03:26:25.520Z,-7.24
2018-02-09T03:27:25.675Z,-7.22
2018-02-09T03:28:26.238Z,-7.27
2018-02-09T03:29:26.159Z,-7.27
2018-02-09T03:30:26.209Z,-7.33
2018-02-09T03:31:25.977Z,-7.34
2018-02-09T03:32:26.245Z,-7.3
2018-02-09T03:33:26.403Z,-7.37
2018-02-09T03:34:26.633Z,-7.42
2018-02-09T03:35:26.895Z,-7.37
2018-02-09T03:36:26.637Z,-7.38
2018-02-09T03:37:27.290Z,-7.4
2018-02-09T03:38:27.202Z,-7.44
2018-02-09T03:39:27.430Z,-7.4
2018-02-09T03:40:27.800Z,-7.37
2018-02-09T03:41:27.524Z,-7.44
2018-02-09T03:42:27.515Z,-7.45
2018-02-09T03:43:27.945Z,-7.48
2018-02-09T03:44:27.434Z,-7.56
2018-02-09T03:45:27.816Z,-7.48
2018-02-09T03:46:28.221Z,-7.58
2018-02-09T03:47:27.942Z,-7.49
2018-02-09T03:48:28.214Z,-7.59
2018-02-09T03:49:28.603Z,-7.52
2018-02-09T03:50:28.998Z,-7.52
2018-02-09T03:51:28.769Z,-7.51
2018-02-09T03:52:28.762Z,-7.52
2018-02-09T03:53:28.602Z,-7.56
2018-02-09T03:54:29.121Z,-7.49
2018-02-09T03:55:28.900Z,-7.48
2018-02-09T03:56:28.650Z,-7.47
2018-02-09T03:57:29.345Z,-7.54
2018-02-09T03:58:28.994Z,-7.52
2018-02-09T03:59:28.795Z,-7.4
2018-02-09T04:00:29.287Z,-7.49
2018-02-09T04:01:29.306Z,-7.52
2018-02-09T04:02:29.125Z,-7.45
2018-02-09T04:03:29.275Z,-7.47
2018-02-09T04:04:29.777Z,-7.54
2018-02-09T04:05:29.199Z,-7.44
2018-02-09T04:06:29.503Z,-7.56
2018-02-09T04:07:29.542Z,-7.52
2018-02-09T04:08:30.039Z,-7.54
2018-02-09T04:09:30.150Z,-7.49
2018-02-09T04:10:30.435Z,-7.52
2018-02-09T04:11:30.196Z,-7.42
2018-02-09T04:12:30.581Z,-7.37
2018-02-09T04:13:30.620Z,-7.44
2018-02-09T04:14:31.302Z,-7.49
2018-02-09T04:15:30.645Z,-7.56
2018-02-09T04:16:31.138Z,-7.52
2018-02-09T04:17:30.891Z,-7.49
2018-02-09T04:18:30.872Z,-7.52
2018-02-09T04:19:31.024Z,-7.54
2018-02-09T04:20:31.708Z,-7.52
2018-02-09T04:21:31.496Z,-7.56
2018-02-09T04:22:31.186Z,-7.54
2018-02-09T04:23:31.443Z,-7.63
2018-02-09T04:24:31.439Z,-7.58
2018-02-09T04:25:31.743Z,-7.63
2018-02-09T04:26:31.753Z,-7.56
2018-02-09T04:27:32.178Z,-7.67
2018-02-09T04:28:32.160Z,-7.63
2018-02-09T04:29:32.414Z,-7.58
2018-02-09T04:30:31.905Z,-7.52
2018-02-09T04:31:31.926Z,-7.56
2018-02-09T04:32:32.046Z,-7.56
2018-02-09T04:33:32.103Z,-7.47
2018-02-09T04:34:32.360Z,-7.44
2018-02-09T04:35:32.529Z,-7.55
2018-02-09T04:36:33.744Z,-7.48
2018-02-09T04:37:33.756Z,-7.49
2018-02-09T04:38:33.739Z,-7.49
2018-02-09T04:39:33.405Z,-7.45
2018-02-09T04:40:33.249Z,-7.47
2018-02-09T04:41:35.078Z,-7.49
2018-02-09T04:42:34.329Z,-7.4
2018-02-09T04:43:34.065Z,-7.33
2018-02-09T04:44:34.412Z,-7.34
2018-02-09T04:45:34.106Z,-7.24
2018-02-09T04:46:34.436Z,-7.2
2018-02-09T04:47:33.964Z,-7.13
2018-02-09T04:48:34.422Z,-7.05
2018-02-09T04:49:34.427Z,-7.06
2018-02-09T04:50:34.434Z,-6.94
2018-02-09T04:51:34.477Z,-6.87
2018-02-09T04:52:34.589Z,-6.94
2018-02-09T04:53:34.259Z,-6.84
2018-02-09T04:54:34.157Z,-6.83
2018-02-09T04:55:34.186Z,-6.88
2018-02-09T04:56:34.913Z,-6.84
2018-02-09T04:57:34.840Z,-6.77
2018-02-09T04:58:34.874Z,-6.84
2018-02-09T04:59:34.726Z,-6.76
2018-02-09T05:00:35.434Z,-6.76
2018-02-09T05:01:35.185Z,-6.78
2018-02-09T05:02:35.425Z,-6.7
2018-02-09T05:03:35.872Z,-6.78
2018-02-09T05:04:36.041Z,-6.73
2018-02-09T05:05:35.547Z,-6.65
2018-02-09T05:06:35.838Z,-6.68
2018-02-09T05:07:35.808Z,-6.68
2018-02-09T05:08:35.906Z,-6.7
2018-02-09T05:09:36.457Z,-6.74
2018-02-09T05:10:36.185Z,-6.74
2018-02-09T05:11:36.465Z,-6.8
2018-02-09T05:12:36.242Z,-6.95
2018-02-09T05:13:36.228Z,-6.99
2018-02-09T05:14:36.452Z,-6.95
2018-02-09T05:15:36.439Z,-6.98
2018-02-09T05:16:36.905Z,-6.99
2018-02-09T05:17:36.959Z,-6.99
2018-02-09T05:18:36.638Z,-7.12
2018-02-09T05:19:36.988Z,-7.02
2018-02-09T05:20:36.930Z,-7.01
2018-02-09T05:21:37.417Z,-7.05
2018-02-09T05:22:37.515Z,-7.02
2018-02-09T05:23:37.550Z,-6.99
2018-02-09T05:24:37.971Z,-6.92
2018-02-09T05:25:38.069Z,-6.89
2018-02-09T05:26:38.410Z,-6.87
2018-02-09T05:27:38.557Z,-6.77
2018-02-09T05:28:38.452Z,-6.88
2018-02-09T05:29:38.502Z,-6.84
2018-02-09T05:30:38.505Z,-6.74
2018-02-09T05:31:39.095Z,-6.73
2018-02-09T05:32:39.158Z,-6.77
2018-02-09T05:33:39.004Z,-6.73
2018-02-09T05:34:39.066Z,-6.7
2018-02-09T05:35:39.314Z,-6.8
2018-02-09T05:36:39.340Z,-6.77
2018-02-09T05:37:39.738Z,-6.92
2018-02-09T05:38:40.015Z,-6.87
2018-02-09T05:39:40.418Z,-6.98
2018-02-09T05:40:40.513Z,-7.02
2018-02-09T05:41:40.281Z,-7.01
2018-02-09T05:42:40.393Z,-7.13
2018-02-09T05:43:40.415Z,-7.07
2018-02-09T05:44:41.011Z,-7.1
2018-02-09T05:45:40.486Z,-7.07
2018-02-09T05:46:41.014Z,-7.06
2018-02-09T05:47:41.041Z,-6.95
2018-02-09T05:48:41.155Z,-6.87
2018-02-09T05:49:41.661Z,-6.8
2018-02-09T05:50:41.469Z,-6.88
2018-02-09T05:51:41.896Z,-6.7
2018-02-09T05:52:41.616Z,-6.74
2018-02-09T05:53:42.059Z,-6.63
2018-02-09T05:54:42.279Z,-6.58
2018-02-09T05:55:41.936Z,-6.63
2018-02-09T05:56:42.860Z,-6.51
2018-02-09T05:57:42.828Z,-6.51
2018-02-09T05:58:42.343Z,-6.49
2018-02-09T05:59:42.947Z,-6.48
2018-02-09T06:00:42.574Z,-6.4
2018-02-09T06:01:42.988Z,-6.33
2018-02-09T06:02:43.038Z,-6.28
2018-02-09T06:03:43.079Z,-6.18
2018-02-09T06:04:42.547Z,-6.08
2018-02-09T06:05:43.581Z,-6.02
2018-02-09T06:06:43.772Z,-6.05
2018-02-09T06:07:43.592Z,-6.05
2018-02-09T06:08:43.793Z,-5.97
2018-02-09T06:09:44.301Z,-5.92
2018-02-09T06:10:44.462Z,-5.92
2018-02-09T06:11:44.683Z,-5.87
2018-02-09T06:12:44.231Z,-5.87
2018-02-09T06:13:44.260Z,-5.76
2018-02-09T06:14:44.344Z,-5.74
2018-02-09T06:15:43.963Z,-5.74
2018-02-09T06:16:44.867Z,-5.7
2018-02-09T06:17:44.359Z,-5.69
2018-02-09T06:18:44.896Z,-5.59
2018-02-09T06:19:44.492Z,-5.66
2018-02-09T06:20:44.435Z,-5.65
2018-02-09T06:21:44.450Z,-5.63
2018-02-09T06:22:44.770Z,-5.55
2018-02-09T06:23:44.234Z,-5.68
2018-02-09T06:24:45.035Z,-5.51
2018-02-09T06:25:44.925Z,-5.56
2018-02-09T06:26:45.089Z,-5.58
2018-02-09T06:27:45.164Z,-5.47
2018-02-09T06:28:45.218Z,-5.41
2018-02-09T06:29:45.258Z,-5.42
2018-02-09T06:30:45.096Z,-5.44
2018-02-09T06:31:45.228Z,-5.37
2018-02-09T06:32:45.416Z,-5.33
2018-02-09T06:33:45.677Z,-5.38
2018-02-09T06:34:45.792Z,-5.27
2018-02-09T06:35:45.586Z,-5.24
2018-02-09T06:36:45.801Z,-5.22
2018-02-09T06:37:45.682Z,-5.24
2018-02-09T06:38:46.078Z,-5.23
2018-02-09T06:39:45.692Z,-5.19
2018-02-09T06:40:46.206Z,-5.19
2018-02-09T06:41:46.054Z,-5.11
2018-02-09T06:42:45.766Z,-5.11
2018-02-09T06:43:45.909Z,-5.1
2018-02-09T06:44:45.960Z,-5.08
2018-02-09T06:45:46.214Z,-4.94
2018-02-09T06:46:46.189Z,-4.98
2018-02-09T06:47:46.272Z,-4.98
2018-02-09T06:48:46.253Z,-5.01
2018-02-09T06:49:46.011Z,-4.98
2018-02-09T06:50:46.837Z,-4.9
2018-02-09T06:51:46.761Z,-4.84
2018-02-09T06:52:47.025Z,-4.86
2018-02-09T06:53:46.951Z,-4.75
2018-02-09T06:54:47.025Z,-4.62
2018-02-09T06:55:47.702Z,-4.59
2018-02-09T06:56:47.201Z,-4.45
2018-02-09T06:57:47.366Z,-4.33
2018-02-09T06:58:47.742Z,-4.25
2018-02-09T06:59:47.835Z,-4.29
2018-02-09T07:00:48.466Z,-4.3
2018-02-09T07:01:48.568Z,-4.25
2018-02-09T07:02:49.276Z,-4.14
2018-02-09T07:03:48.729Z,-4.19
2018-02-09T07:04:49.114Z,-4.22
2018-02-09T07:05:48.966Z,-4.16
2018-02-09T07:06:49.382Z,-4.22
2018-02-09T07:07:49.539Z,-4.22
2018-02-09T07:08:49.444Z,-4.12
2018-02-09T07:09:49.926Z,-4.04
2018-02-09T07:10:50.319Z,-4.04
2018-02-09T07:11:50.458Z,-3.98
2018-02-09T07:12:50.215Z,-3.96
2018-02-09T07:13:50.462Z,-4.08
2018-02-09T07:14:50.838Z,-4.04
2018-02-09T07:15:50.952Z,-4.12
2018-02-09T07:16:51.040Z,-4.08
2018-02-09T07:17:51.614Z,-4.09
2018-02-09T07:18:51.810Z,-4.09
2018-02-09T07:19:51.749Z,-3.98
2018-02-09T07:20:51.899Z,-4.04
2018-02-09T07:21:52.320Z,-3.9
2018-02-09T07:22:53.211Z,-3.9
2018-02-09T07:23:53.048Z,-3.97
2018-02-09T07:24:53.635Z,-3.97
2018-02-09T07:25:53.435Z,-4
2018-02-09T07:26:53.054Z,-3.94
2018-02-09T07:27:53.296Z,-4.01
2018-02-09T07:28:55.043Z,-3.94
2018-02-09T07:29:55.096Z,-3.97
2018-02-09T07:30:55.188Z,-3.98
2018-02-09T07:31:53.594Z,-3.97
2018-02-09T07:32:54.072Z,-3.94
2018-02-09T07:33:54.498Z,-3.93
2018-02-09T07:34:53.537Z,-3.97
2018-02-09T07:35:53.815Z,-3.91
2018-02-09T07:36:54.038Z,-3.93
2018-02-09T07:37:54.526Z,-3.94
2018-02-09T07:38:54.219Z,-3.86
2018-02-09T07:39:54.587Z,-3.9
2018-02-09T07:40:54.015Z,-3.9
2018-02-09T07:41:54.295Z,-3.87
2018-02-09T07:42:55.065Z,-3.8
2018-02-09T07:43:55.298Z,-3.72
2018-02-09T07:44:55.711Z,-3.6
2018-02-09T07:45:55.879Z,-3.47
2018-02-09T07:46:56.042Z,-3.45
2018-02-09T07:47:55.922Z,-3.42
2018-02-09T07:48:56.545Z,-3.39
2018-02-09T07:49:56.812Z,-3.42
2018-02-09T07:50:56.803Z,-3.38
2018-02-09T07:51:56.924Z,-3.35
2018-02-09T07:52:56.307Z,-3.32
2018-02-09T07:53:56.668Z,-3.24
2018-02-09T07:54:56.956Z,-3.12
2018-02-09T07:55:57.373Z,-3.11
2018-02-09T07:56:57.643Z,-3.01
2018-02-09T07:57:57.097Z,-2.94
2018-02-09T07:58:57.387Z,-2.93
2018-02-09T07:59:57.237Z,-2.9
2018-02-09T08:00:57.464Z,-2.83
2018-02-09T08:01:57.592Z,-2.7
2018-02-09T08:02:58.224Z,-2.54
2018-02-09T08:03:57.997Z,-2.5
2018-02-09T08:04:58.666Z,-2.43
2018-02-09T08:05:58.431Z,-2.37
2018-02-09T08:06:58.919Z,-2.3
2018-02-09T08:07:58.588Z,-2.3
2018-02-09T08:08:59.740Z,-2.28
2018-02-09T08:09:59.641Z,-2.28
2018-02-09T08:10:59.743Z,-2.15
2018-02-09T08:11:59.829Z,-2.17
2018-02-09T08:12:59.434Z,-2.18
2018-02-09T08:13:59.785Z,-2.24
2018-02-09T08:15:00.131Z,-2.28
2018-02-09T08:16:00.115Z,-2.21
2018-02-09T08:17:00.317Z,-2.39
2018-02-09T08:18:01.587Z,-2.34
2018-02-09T08:19:01.169Z,-2.21
2018-02-09T08:20:00.934Z,-2.2
2018-02-09T08:21:01.191Z,-2.17
2018-02-09T08:22:01.169Z,-2.1
2018-02-09T08:23:00.658Z,-2.12
2018-02-09T08:24:01.078Z,-1.96
2018-02-09T08:25:01.195Z,-1.91
2018-02-09T08:26:02.022Z,-1.63
2018-02-09T08:27:01.751Z,-1.53
2018-02-09T08:28:01.629Z,-1.38
2018-02-09T08:29:01.341Z,-1.27
2018-02-09T08:30:01.187Z,-1.17
2018-02-09T08:31:01.338Z,-1.1
2018-02-09T08:32:01.174Z,-0.96
2018-02-09T08:33:01.568Z,-0.84
2018-02-09T08:34:01.400Z,-0.73
2018-02-09T08:35:01.334Z,-0.7
2018-02-09T08:36:01.389Z,-0.66
2018-02-09T08:37:01.800Z,-0.7
2018-02-09T08:38:01.591Z,-0.7
2018-02-09T08:39:01.787Z,-0.66
2018-02-09T08:40:01.779Z,-0.55
2018-02-09T08:41:01.521Z,-0.49
2018-02-09T08:42:02.080Z,-0.48
2018-02-09T08:43:01.896Z,-0.36
2018-02-09T08:44:01.992Z,-0.34
2018-02-09T08:45:03.081Z,-0.36
2018-02-09T08:46:02.801Z,-0.18
2018-02-09T08:47:02.424Z,0.34
2018-02-09T08:48:02.862Z,0.79
2018-02-09T08:49:03.255Z,1.35
2018-02-09T08:50:02.859Z,1.84
2018-02-09T08:51:02.815Z,2.08
2018-02-09T08:52:03.568Z,2.23
2018-02-09T08:53:03.681Z,2.27
2018-02-09T08:54:04.107Z,2.24
2018-02-09T08:55:03.786Z,2.27
2018-02-09T08:56:04.187Z,2.24
2018-02-09T08:57:04.132Z,2.08
2018-02-09T08:58:04.389Z,2.11
2018-02-09T08:59:04.458Z,2.12
2018-02-09T09:01:04.653Z,2.38
2018-02-09T09:02:04.445Z,2.52
2018-02-09T09:03:05.302Z,2.73
2018-02-09T09:04:04.675Z,2.84
2018-02-09T09:05:05.149Z,2.95
2018-02-09T09:06:05.079Z,2.98
2018-02-09T09:07:05.942Z,3.14
2018-02-09T09:08:05.925Z,3.56
2018-02-09T09:09:06.230Z,4.15
2018-02-09T09:10:06.098Z,4.85
2018-02-09T09:11:06.407Z,5.44
2018-02-09T09:12:06.590Z,6.14
2018-02-09T09:13:08.541Z,6.6
2018-02-09T09:14:08.615Z,6.9
2018-02-09T09:15:08.790Z,7.01
2018-02-09T09:16:07.965Z,7.33
2018-02-09T09:17:07.701Z,7.54
2018-02-09T09:18:07.609Z,7.63
2018-02-09T09:19:07.396Z,7.82
2018-02-09T09:20:08.313Z,8.06
2018-02-09T09:21:08.380Z,8.19
2018-02-09T09:22:09.027Z,8.53
2018-02-09T09:23:08.240Z,8.74
2018-02-09T09:24:08.272Z,9.04
2018-02-09T09:25:08.094Z,9
2018-02-09T09:26:07.967Z,9.17
2018-02-09T09:27:08.186Z,9.26
2018-02-09T09:28:08.406Z,9.37
2018-02-09T09:29:07.849Z,9.67
2018-02-09T09:30:08.410Z,9.84
2018-02-09T09:31:08.463Z,10.2
2018-02-09T09:32:08.353Z,10.35
2018-02-09T09:33:09.329Z,10.41
2018-02-09T09:34:09.128Z,10.44
2018-02-09T09:35:09.152Z,10.36
2018-02-09T09:36:09.156Z,10.44
2018-02-09T09:37:08.837Z,10.49
2018-02-09T09:38:09.197Z,10.31
2018-02-09T09:39:09.408Z,10.32
2018-02-09T09:40:09.231Z,10.39
2018-02-09T09:41:09.334Z,10.42
2018-02-09T09:42:09.649Z,10.28
2018-02-09T09:43:10.321Z,10.25
2018-02-09T09:44:10.199Z,9.84
2018-02-09T09:45:10.336Z,9.99
2018-02-09T09:46:11.746Z,10.05
2018-02-09T09:47:10.468Z,10.35
2018-02-09T09:48:11.812Z,10.51
2018-02-09T09:49:10.543Z,10.7
2018-02-09T09:50:11.156Z,10.61
2018-02-09T09:51:11.174Z,10.51
2018-02-09T09:52:10.898Z,10.38
2018-02-09T09:53:11.111Z,9.93
2018-02-09T09:54:11.525Z,9.77
2018-02-09T09:55:11.542Z,9.59
2018-02-09T09:56:11.511Z,9.44
2018-02-09T09:57:11.666Z,9.03
2018-02-09T09:58:11.820Z,8.28
2018-02-09T09:59:11.197Z,7.67
2018-02-09T10:00:11.048Z,7.4
2018-02-09T10:01:11.919Z,7.26
2018-02-09T10:02:11.293Z,7.12
2018-02-09T10:03:11.609Z,7
2018-02-09T10:04:11.879Z,7.01
2018-02-09T10:05:12.064Z,7.03
2018-02-09T10:06:12.516Z,7.03
2018-02-09T10:07:12.330Z,7.11
2018-02-09T10:08:12.648Z,7.36
2018-02-09T10:09:12.751Z,7.91
2018-02-09T10:10:12.396Z,8.32
2018-02-09T10:11:12.645Z,8.68
2018-02-09T10:12:12.779Z,9.01
2018-02-09T10:13:13.205Z,8.85
2018-02-09T10:14:13.184Z,8.89
2018-02-09T10:15:13.096Z,8.82
2018-02-09T10:16:13.603Z,8.76
2018-02-09T10:17:13.548Z,8.8
2018-02-09T10:18:13.330Z,8.79
2018-02-09T10:19:13.800Z,8.72
2018-02-09T10:20:13.870Z,8.6
2018-02-09T10:21:13.985Z,8.52
2018-02-09T10:22:13.883Z,8.14
2018-02-09T10:23:14.032Z,7.93
2018-02-09T10:24:14.054Z,7.59
2018-02-09T10:25:14.018Z,7.23
2018-02-09T10:26:14.006Z,6.95
2018-02-09T10:27:14.015Z,6.82
2018-02-09T10:28:14.608Z,6.52
2018-02-09T10:29:14.514Z,6.17
2018-02-09T10:30:14.540Z,5.98
2018-02-09T10:31:14.740Z,5.73
2018-02-09T10:32:15.024Z,5.52
2018-02-09T10:33:15.321Z,5.37
2018-02-09T10:34:15.259Z,5.15
2018-02-09T10:35:15.604Z,5.09
2018-02-09T10:36:15.650Z,5.12
2018-02-09T10:37:15.684Z,5.06
2018-02-09T10:38:16.008Z,5.05
2018-02-09T10:39:15.676Z,5.1
2018-02-09T10:40:15.434Z,5.03
2018-02-09T10:41:15.743Z,4.95
2018-02-09T10:42:16.107Z,4.87
2018-02-09T10:43:15.588Z,4.75
2018-02-09T10:44:16.438Z,4.66
2018-02-09T10:45:16.324Z,4.42
2018-02-09T10:46:16.747Z,4.3
2018-02-09T10:47:16.477Z,4.36
2018-02-09T10:48:16.589Z,4.32
2018-02-09T10:49:17.840Z,4.3
2018-02-09T10:50:18.272Z,4.08
2018-02-09T10:51:18.504Z,4.02
2018-02-09T10:52:18.114Z,3.81
2018-02-09T10:53:17.364Z,3.66
2018-02-09T10:54:17.533Z,3.51
2018-02-09T10:55:17.640Z,3.53
2018-02-09T10:56:17.960Z,3.39
2018-02-09T10:57:17.504Z,3.27
2018-02-09T10:58:17.795Z,3.23
2018-02-09T10:59:17.746Z,3.14
2018-02-09T11:01:18.237Z,3.2
2018-02-09T11:02:18.279Z,3.02
2018-02-09T11:03:17.893Z,3.01
2018-02-09T11:04:18.602Z,2.98
2018-02-09T11:05:18.943Z,2.99
2018-02-09T11:06:19.459Z,2.98
2018-02-09T11:07:18.432Z,3.03
2018-02-09T11:08:18.881Z,3.08
2018-02-09T11:09:19.283Z,2.98
2018-02-09T11:10:19.527Z,3.01
2018-02-09T11:11:19.369Z,2.99
2018-02-09T11:12:19.359Z,2.96
2018-02-09T11:13:19.370Z,3.11
2018-02-09T11:14:19.453Z,3.09
2018-02-09T11:15:19.403Z,3.19
2018-02-09T11:16:19.867Z,3.19
2018-02-09T11:17:20.306Z,3.16
2018-02-09T11:18:20.091Z,3.23
2018-02-09T11:19:19.857Z,3.17
2018-02-09T11:20:20.351Z,3.21
2018-02-09T11:21:19.891Z,3.37
2018-02-09T11:22:19.970Z,3.64
2018-02-09T11:23:19.967Z,3.93
2018-02-09T11:24:20.046Z,4.04
2018-02-09T11:25:20.270Z,4.1
2018-02-09T11:26:20.383Z,4.17
2018-02-09T11:27:22.295Z,4.17
2018-02-09T11:28:21.554Z,4.17
2018-02-09T11:29:21.705Z,4.17
2018-02-09T11:30:22.072Z,4.4
2018-02-09T11:31:21.975Z,4.47
2018-02-09T11:32:22.357Z,4.54
2018-02-09T11:33:22.361Z,4.78
2018-02-09T11:34:22.542Z,4.95
2018-02-09T11:35:22.779Z,4.98
2018-02-09T11:36:23.224Z,4.85
2018-02-09T11:37:23.543Z,5.09
2018-02-09T11:38:23.219Z,5.21
2018-02-09T11:39:23.707Z,5.41
2018-02-09T11:40:23.469Z,5.62
2018-02-09T11:41:23.664Z,5.87
2018-02-09T11:42:23.505Z,5.89
2018-02-09T11:43:23.259Z,5.75
2018-02-09T11:44:23.585Z,5.54
2018-02-09T11:45:23.976Z,5.36
2018-02-09T11:46:24.358Z,5.13
2018-02-09T11:47:24.574Z,4.94
2018-02-09T11:48:24.851Z,4.85
2018-02-09T11:49:25.338Z,4.74
2018-02-09T11:50:25.966Z,4.54
2018-02-09T11:51:25.876Z,4.47
2018-02-09T11:52:26.299Z,4.33
2018-02-09T11:53:25.532Z,4.33
2018-02-09T11:54:25.918Z,4.35
2018-02-09T11:55:26.365Z,4.18
2018-02-09T11:56:25.772Z,4.12
2018-02-09T11:57:25.887Z,4.2
2018-02-09T11:58:25.484Z,4.08
2018-02-09T11:59:26.466Z,4.14
2018-02-09T12:00:26.265Z,4
2018-02-09T12:01:26.092Z,3.89
2018-02-09T12:02:25.921Z,3.69
2018-02-09T12:03:27.255Z,3.58
2018-02-09T12:04:26.826Z,3.3
2018-02-09T12:05:27.150Z,3.37
2018-02-09T12:06:27.318Z,3.39
2018-02-09T12:07:26.924Z,3.45
2018-02-09T12:08:27.258Z,3.53
2018-02-09T12:09:27.238Z,3.64
2018-02-09T12:10:27.296Z,3.84
2018-02-09T12:11:27.438Z,4.07
2018-02-09T12:12:27.603Z,4.14
2018-02-09T12:13:27.709Z,4.14
2018-02-09T12:14:26.540Z,4.22
2018-02-09T12:15:27.116Z,4.29
2018-02-09T12:16:27.888Z,4.32
2018-02-09T12:17:28.210Z,4.33
2018-02-09T12:18:28.421Z,4.07
2018-02-09T12:19:28.415Z,4.1
2018-02-09T12:20:28.710Z,4.1
2018-02-09T12:21:27.219Z,3.84
2018-02-09T12:22:27.429Z,3.75
2018-02-09T12:23:28.478Z,3.67
2018-02-09T12:24:28.282Z,3.63
2018-02-09T12:25:27.298Z,3.53
2018-02-09T12:26:28.626Z,3.45
2018-02-09T12:27:27.296Z,3.32
2018-02-09T12:28:28.564Z,3.24
2018-02-09T12:29:28.011Z,3.03
2018-02-09T12:30:28.301Z,2.77
2018-02-09T12:31:29.186Z,2.67
2018-02-09T12:32:29.143Z,2.6
2018-02-09T12:33:29.091Z,2.49
2018-02-09T12:34:29.589Z,2.45
2018-02-09T12:35:29.441Z,2.48
2018-02-09T12:36:29.542Z,2.31
2018-02-09T12:37:28.606Z,2.29
2018-02-09T12:38:28.197Z,2.18
2018-02-09T12:39:28.488Z,2.31
2018-02-09T12:40:29.645Z,2.29
2018-02-09T12:41:28.807Z,2.29
2018-02-09T12:42:29.297Z,2.18
2018-02-09T12:43:28.521Z,2.22
2018-02-09T12:44:29.701Z,2.09
2018-02-09T12:45:29.372Z,2.09
2018-02-09T12:46:28.713Z,2.06
2018-02-09T12:47:29.339Z,2.02
2018-02-09T12:48:29.583Z,1.98
2018-02-09T12:49:29.522Z,1.97
2018-02-09T12:50:29.540Z,2.05
2018-02-09T12:51:29.635Z,2.02
2018-02-09T12:52:29.973Z,1.97
2018-02-09T12:53:29.253Z,1.93
2018-02-09T12:54:29.600Z,1.9
2018-02-09T12:55:29.954Z,1.97
2018-02-09T12:56:30.138Z,1.92
2018-02-09T12:57:29.081Z,1.89
2018-02-09T12:58:29.999Z,1.87
2018-02-09T12:59:29.089Z,1.89
2018-02-09T13:00:29.085Z,1.87
2018-02-09T13:01:29.140Z,1.89
2018-02-09T13:02:29.573Z,1.78
2018-02-09T13:03:28.977Z,1.84
2018-02-09T13:04:28.784Z,1.84
2018-02-09T13:05:29.924Z,1.74
2018-02-09T13:06:29.458Z,1.72